Geronimo — PD6553 — position and weather

sailwx.info

Track history (hours):
 
Tides and Currents Weather Stations Pressure Air Temp Water Temp Dewpoint Dewpoint Depression Visibility Wind Speed Wind Dir Waves Ship Positions

Geronimo

Last reported at 2016-Dec-03 19:08 UTC. Time now 2016-Dec-05 16:32 UTC.
Position N 33°30' W 009°13'.

Length 20 m; draft 2.9 m.

Type: Sailing vessel. MMSI: 244620501.

Date/timePositionNaut miles runAvg speedWind from/ knotsBaromVisibWave heightAir tempDewpointWater temp
2016-Dec-03 19:08N 33°30' W 009°13'2 3.4
2016-Dec-03 18:33N 33°32' W 009°13'3 3.4
2016-Dec-03 17:33N 33°36' W 009°14'  
2016-Nov-29 14:33N 39°08' E 001°44'7 7.3
2016-Nov-29 13:33N 39°09' E 001°53'7 7.1
2016-Nov-29 12:33N 39°13' E 002°01'6 6.4
2016-Nov-29 11:33N 39°16' E 002°09'7 6.7
2016-Nov-29 10:33N 39°19' E 002°16'7 7.0
2016-Nov-29 09:33N 39°23' E 002°24'7 7.3
2016-Nov-29 08:33N 39°27' E 002°32'9 2.6
2016-Nov-29 05:17N 39°34' E 002°38'0 0.0
2016-Nov-29 04:33N 39°34' E 002°38'0 0.0
2016-Nov-29 03:33N 39°34' E 002°38'0 0.0
2016-Nov-29 02:33N 39°34' E 002°38'0 0.0
2016-Nov-29 01:33N 39°34' E 002°38'0 0.0
2016-Nov-29 00:33N 39°34' E 002°38'0 0.0
2016-Nov-28 23:33N 39°34' E 002°38'0 0.0
2016-Nov-28 22:33N 39°34' E 002°38'0 0.0
2016-Nov-28 21:33N 39°34' E 002°38'0 0.0
2016-Nov-28 20:33N 39°34' E 002°38'0 0.0
2016-Nov-28 19:33N 39°34' E 002°38'0 0.0
2016-Nov-28 18:33N 39°34' E 002°38'0 0.0
2016-Nov-28 17:33N 39°34' E 002°38'0 0.0
2016-Nov-28 16:33N 39°34' E 002°38'0 0.0
2016-Nov-28 15:34N 39°34' E 002°38'0 0.5
2016-Nov-28 14:33N 39°33' E 002°38'1 0.6
2016-Nov-28 13:33N 39°34' E 002°38'0 0.0
2016-Nov-28 12:33N 39°34' E 002°38'0 0.0
2016-Nov-28 11:33N 39°34' E 002°38'0 0.0
2016-Nov-28 10:33N 39°34' E 002°38'0 0.0
2016-Nov-28 09:33N 39°34' E 002°38'0 0.0
2016-Nov-28 08:33N 39°34' E 002°38'0 0.0
2016-Nov-28 07:33N 39°34' E 002°38'0 0.0
2016-Nov-28 06:34N 39°34' E 002°38'0 0.0
2016-Nov-28 05:33N 39°34' E 002°38'0 0.0
2016-Nov-28 04:33N 39°34' E 002°38'0 0.0
2016-Nov-28 03:33N 39°34' E 002°38'0 0.0
2016-Nov-28 02:33N 39°34' E 002°38'0 0.0
2016-Nov-28 01:33N 39°34' E 002°38'0 0.0
2016-Nov-28 00:33N 39°34' E 002°38'0 0.0
2016-Nov-27 23:33N 39°34' E 002°38'0 0.0
2016-Nov-27 22:33N 39°34' E 002°38'0 0.0
2016-Nov-27 21:33N 39°34' E 002°38'0 0.0
2016-Nov-27 20:33N 39°34' E 002°38'0 0.0
2016-Nov-27 19:33N 39°34' E 002°38'0 0.0
2016-Nov-27 18:33N 39°34' E 002°38'0 0.0
2016-Nov-27 17:33N 39°34' E 002°38'0 0.0
2016-Nov-27 16:33N 39°34' E 002°38'0 0.0
2016-Nov-27 15:33N 39°34' E 002°38'0 0.0
2016-Nov-27 14:33N 39°34' E 002°38'0 0.0
2016-Nov-27 13:33N 39°34' E 002°38'0 0.0
2016-Nov-27 12:33N 39°34' E 002°38'0 0.0
2016-Nov-27 11:33N 39°34' E 002°38'0 0.0
2016-Nov-27 10:33N 39°34' E 002°38'0 0.0
2016-Nov-27 09:33N 39°34' E 002°38'0 0.0
2016-Nov-27 08:33N 39°34' E 002°38'0 0.0
2016-Nov-27 07:33N 39°34' E 002°38'0 0.0
2016-Nov-27 06:33N 39°34' E 002°38'0 0.0
2016-Nov-27 05:33N 39°34' E 002°38'0 0.0
2016-Nov-27 04:33N 39°34' E 002°38'0 0.0
2016-Nov-27 03:33N 39°34' E 002°38'0 0.0
2016-Nov-27 02:33N 39°34' E 002°38'0 0.0
2016-Nov-27 01:33N 39°34' E 002°38'0 0.0
2016-Nov-27 00:33N 39°34' E 002°38'0 0.0
2016-Nov-26 23:33N 39°34' E 002°38'0 0.0
2016-Nov-26 22:34N 39°34' E 002°38'0 0.0
2016-Nov-26 21:33N 39°34' E 002°38'0 0.0
2016-Nov-26 20:33N 39°34' E 002°38'0 0.0
2016-Nov-26 19:33N 39°34' E 002°38'0 0.0
2016-Nov-26 18:33N 39°34' E 002°38'0 0.0
2016-Nov-26 17:33N 39°34' E 002°38'0 0.0
2016-Nov-26 16:33N 39°34' E 002°38'0 0.0
2016-Nov-26 15:33N 39°34' E 002°38'0 0.0
2016-Nov-26 14:33N 39°34' E 002°38'0 0.0
2016-Nov-26 13:33N 39°34' E 002°38'0 0.0
2016-Nov-26 12:33N 39°34' E 002°38'0 0.0
2016-Nov-26 11:34N 39°34' E 002°38'0 0.0
2016-Nov-26 10:33N 39°34' E 002°38'0 0.0
2016-Nov-26 09:33N 39°34' E 002°38'0 0.0
2016-Nov-26 08:33N 39°34' E 002°38'0 0.0
2016-Nov-26 07:33N 39°34' E 002°38'0 0.0
2016-Nov-26 06:20N 39°34' E 002°38'0 0.0
2016-Nov-26 05:33N 39°34' E 002°38'0 0.0
2016-Nov-26 04:33N 39°34' E 002°38'0 0.0
2016-Nov-26 03:33N 39°34' E 002°38'0 0.0
2016-Nov-26 02:33N 39°34' E 002°38'0 0.0
2016-Nov-26 01:33N 39°34' E 002°38'0 0.0
2016-Nov-26 00:33N 39°34' E 002°38'0 0.0
2016-Nov-25 23:33N 39°34' E 002°38'0 0.0
2016-Nov-25 22:33N 39°34' E 002°38'0 0.0
2016-Nov-25 21:33N 39°34' E 002°38'0 0.0
2016-Nov-25 20:33N 39°34' E 002°38'0 0.0
2016-Nov-25 19:33N 39°34' E 002°38'0 0.0
2016-Nov-25 18:33N 39°34' E 002°38'0 0.0
2016-Nov-25 17:33N 39°34' E 002°38'0 0.0
2016-Nov-25 16:33N 39°34' E 002°38'0 0.0
2016-Nov-25 15:33N 39°34' E 002°38'0 0.0
2016-Nov-25 14:33N 39°34' E 002°38'0 0.0
2016-Nov-25 13:33N 39°34' E 002°38'0 0.0
2016-Nov-25 12:33N 39°34' E 002°38'0 0.0
2016-Nov-25 11:33N 39°34' E 002°38'0 0.0
2016-Nov-25 10:33N 39°34' E 002°38'0 0.0
2016-Nov-25 09:33N 39°34' E 002°38'0 0.0
2016-Nov-25 08:33N 39°34' E 002°38'0 0.0
2016-Nov-25 07:33N 39°34' E 002°38'0 0.0
2016-Nov-25 06:33N 39°34' E 002°38'0 0.0
2016-Nov-25 05:33N 39°34' E 002°38'0 0.0
2016-Nov-25 04:33N 39°34' E 002°38'0 0.0
2016-Nov-25 03:33N 39°34' E 002°38'0 0.0
2016-Nov-25 02:33N 39°34' E 002°38'0 0.0
2016-Nov-25 01:33N 39°34' E 002°38'0 0.0
2016-Nov-25 00:33N 39°34' E 002°38'0 0.0
2016-Nov-24 23:33N 39°34' E 002°38'0 0.0
2016-Nov-24 22:33N 39°34' E 002°38'0 0.0
2016-Nov-24 21:33N 39°34' E 002°38'0 0.0
2016-Nov-24 20:33N 39°34' E 002°38'0 0.0
2016-Nov-24 19:33N 39°34' E 002°38'0 0.0
2016-Nov-24 18:33N 39°34' E 002°38'0 0.0
2016-Nov-24 17:33N 39°34' E 002°38'0 0.0
2016-Nov-24 16:33N 39°34' E 002°38'0 0.0
2016-Nov-24 15:33N 39°34' E 002°38'0 0.0
2016-Nov-24 14:33N 39°34' E 002°38'0 0.0
2016-Nov-24 13:33N 39°34' E 002°38'0 0.0
2016-Nov-24 12:33N 39°34' E 002°38'0 0.0
2016-Nov-24 11:33N 39°34' E 002°38'0 0.0
2016-Nov-24 10:33N 39°34' E 002°38'0 0.0
2016-Nov-24 09:33N 39°34' E 002°38'0 0.0
2016-Nov-24 08:33N 39°34' E 002°38'0 0.0
2016-Nov-24 07:33N 39°34' E 002°38'0 0.0
2016-Nov-24 06:33N 39°34' E 002°38'0 0.0
2016-Nov-24 05:32N 39°34' E 002°38'0 0.0
2016-Nov-24 04:34N 39°34' E 002°38'0 0.0
2016-Nov-24 03:33N 39°34' E 002°38'0 0.0
2016-Nov-24 02:33N 39°34' E 002°38'0 0.0
2016-Nov-24 01:33N 39°34' E 002°38'0 0.0
2016-Nov-24 00:33N 39°34' E 002°38'0 0.0
2016-Nov-23 23:33N 39°34' E 002°38'0 0.0
2016-Nov-23 22:33N 39°34' E 002°38'0 0.0
2016-Nov-23 21:34N 39°34' E 002°38'0 0.0
2016-Nov-23 20:33N 39°34' E 002°38'0 0.0
2016-Nov-23 19:33N 39°34' E 002°38'  
Track history (hours):
 
Tides and Currents Weather Stations Pressure Air Temp Water Temp Dewpoint Dewpoint Depression Visibility Wind Speed Wind Dir Waves Ship Positions

Geronimo

Last reported at 2016-Dec-03 19:08 UTC. Time now 2016-Dec-05 16:32 UTC.
Position N 33°30' W 009°13'.

Length 20 m; draft 2.9 m.

Type: Sailing vessel. MMSI: 244620501.

Date/timePositionNaut miles runAvg speedWind from/ knotsBaromVisibWave heightAir tempDewpointWater temp
2016-Dec-03 19:08N 33°30' W 009°13'2 3.4
2016-Dec-03 18:33N 33°32' W 009°13'3 3.4
2016-Dec-03 17:33N 33°36' W 009°14'  
2016-Nov-29 14:33N 39°08' E 001°44'7 7.3
2016-Nov-29 13:33N 39°09' E 001°53'7 7.1
2016-Nov-29 12:33N 39°13' E 002°01'6 6.4
2016-Nov-29 11:33N 39°16' E 002°09'7 6.7
2016-Nov-29 10:33N 39°19' E 002°16'7 7.0
2016-Nov-29 09:33N 39°23' E 002°24'7 7.3
2016-Nov-29 08:33N 39°27' E 002°32'9 2.6
2016-Nov-29 05:17N 39°34' E 002°38'0 0.0
2016-Nov-29 04:33N 39°34' E 002°38'0 0.0
2016-Nov-29 03:33N 39°34' E 002°38'0 0.0
2016-Nov-29 02:33N 39°34' E 002°38'0 0.0
2016-Nov-29 01:33N 39°34' E 002°38'0 0.0
2016-Nov-29 00:33N 39°34' E 002°38'0 0.0
2016-Nov-28 23:33N 39°34' E 002°38'0 0.0
2016-Nov-28 22:33N 39°34' E 002°38'0 0.0
2016-Nov-28 21:33N 39°34' E 002°38'0 0.0
2016-Nov-28 20:33N 39°34' E 002°38'0 0.0
2016-Nov-28 19:33N 39°34' E 002°38'0 0.0
2016-Nov-28 18:33N 39°34' E 002°38'0 0.0
2016-Nov-28 17:33N 39°34' E 002°38'0 0.0
2016-Nov-28 16:33N 39°34' E 002°38'0 0.0
2016-Nov-28 15:34N 39°34' E 002°38'0 0.5
2016-Nov-28 14:33N 39°33' E 002°38'1 0.6
2016-Nov-28 13:33N 39°34' E 002°38'0 0.0
2016-Nov-28 12:33N 39°34' E 002°38'0 0.0
2016-Nov-28 11:33N 39°34' E 002°38'0 0.0
2016-Nov-28 10:33N 39°34' E 002°38'0 0.0
2016-Nov-28 09:33N 39°34' E 002°38'0 0.0
2016-Nov-28 08:33N 39°34' E 002°38'0 0.0
2016-Nov-28 07:33N 39°34' E 002°38'0 0.0
2016-Nov-28 06:34N 39°34' E 002°38'0 0.0
2016-Nov-28 05:33N 39°34' E 002°38'0 0.0
2016-Nov-28 04:33N 39°34' E 002°38'0 0.0
2016-Nov-28 03:33N 39°34' E 002°38'0 0.0
2016-Nov-28 02:33N 39°34' E 002°38'0 0.0
2016-Nov-28 01:33N 39°34' E 002°38'0 0.0
2016-Nov-28 00:33N 39°34' E 002°38'0 0.0
2016-Nov-27 23:33N 39°34' E 002°38'0 0.0
2016-Nov-27 22:33N 39°34' E 002°38'0 0.0
2016-Nov-27 21:33N 39°34' E 002°38'0 0.0
2016-Nov-27 20:33N 39°34' E 002°38'0 0.0
2016-Nov-27 19:33N 39°34' E 002°38'0 0.0
2016-Nov-27 18:33N 39°34' E 002°38'0 0.0
2016-Nov-27 17:33N 39°34' E 002°38'0 0.0
2016-Nov-27 16:33N 39°34' E 002°38'0 0.0
2016-Nov-27 15:33N 39°34' E 002°38'0 0.0
2016-Nov-27 14:33N 39°34' E 002°38'0 0.0
2016-Nov-27 13:33N 39°34' E 002°38'0 0.0
2016-Nov-27 12:33N 39°34' E 002°38'0 0.0
2016-Nov-27 11:33N 39°34' E 002°38'0 0.0
2016-Nov-27 10:33N 39°34' E 002°38'0 0.0
2016-Nov-27 09:33N 39°34' E 002°38'0 0.0
2016-Nov-27 08:33N 39°34' E 002°38'0 0.0
2016-Nov-27 07:33N 39°34' E 002°38'0 0.0
2016-Nov-27 06:33N 39°34' E 002°38'0 0.0
2016-Nov-27 05:33N 39°34' E 002°38'0 0.0
2016-Nov-27 04:33N 39°34' E 002°38'0 0.0
2016-Nov-27 03:33N 39°34' E 002°38'0 0.0
2016-Nov-27 02:33N 39°34' E 002°38'0 0.0
2016-Nov-27 01:33N 39°34' E 002°38'0 0.0
2016-Nov-27 00:33N 39°34' E 002°38'0 0.0
2016-Nov-26 23:33N 39°34' E 002°38'0 0.0
2016-Nov-26 22:34N 39°34' E 002°38'0 0.0
2016-Nov-26 21:33N 39°34' E 002°38'0 0.0
2016-Nov-26 20:33N 39°34' E 002°38'0 0.0
2016-Nov-26 19:33N 39°34' E 002°38'0 0.0
2016-Nov-26 18:33N 39°34' E 002°38'0 0.0
2016-Nov-26 17:33N 39°34' E 002°38'0 0.0
2016-Nov-26 16:33N 39°34' E 002°38'0 0.0
2016-Nov-26 15:33N 39°34' E 002°38'0 0.0
2016-Nov-26 14:33N 39°34' E 002°38'0 0.0
2016-Nov-26 13:33N 39°34' E 002°38'0 0.0
2016-Nov-26 12:33N 39°34' E 002°38'0 0.0
2016-Nov-26 11:34N 39°34' E 002°38'0 0.0
2016-Nov-26 10:33N 39°34' E 002°38'0 0.0
2016-Nov-26 09:33N 39°34' E 002°38'0 0.0
2016-Nov-26 08:33N 39°34' E 002°38'0 0.0
2016-Nov-26 07:33N 39°34' E 002°38'0 0.0
2016-Nov-26 06:20N 39°34' E 002°38'0 0.0
2016-Nov-26 05:33N 39°34' E 002°38'0 0.0
2016-Nov-26 04:33N 39°34' E 002°38'0 0.0
2016-Nov-26 03:33N 39°34' E 002°38'0 0.0
2016-Nov-26 02:33N 39°34' E 002°38'0 0.0
2016-Nov-26 01:33N 39°34' E 002°38'0 0.0
2016-Nov-26 00:33N 39°34' E 002°38'0 0.0
2016-Nov-25 23:33N 39°34' E 002°38'0 0.0
2016-Nov-25 22:33N 39°34' E 002°38'0 0.0
2016-Nov-25 21:33N 39°34' E 002°38'0 0.0
2016-Nov-25 20:33N 39°34' E 002°38'0 0.0
2016-Nov-25 19:33N 39°34' E 002°38'0 0.0
2016-Nov-25 18:33N 39°34' E 002°38'0 0.0
2016-Nov-25 17:33N 39°34' E 002°38'0 0.0
2016-Nov-25 16:33N 39°34' E 002°38'0 0.0
2016-Nov-25 15:33N 39°34' E 002°38'0 0.0
2016-Nov-25 14:33N 39°34' E 002°38'0 0.0
2016-Nov-25 13:33N 39°34' E 002°38'0 0.0
2016-Nov-25 12:33N 39°34' E 002°38'0 0.0
2016-Nov-25 11:33N 39°34' E 002°38'0 0.0
2016-Nov-25 10:33N 39°34' E 002°38'0 0.0
2016-Nov-25 09:33N 39°34' E 002°38'0 0.0
2016-Nov-25 08:33N 39°34' E 002°38'0 0.0
2016-Nov-25 07:33N 39°34' E 002°38'0 0.0
2016-Nov-25 06:33N 39°34' E 002°38'0 0.0
2016-Nov-25 05:33N 39°34' E 002°38'0 0.0
2016-Nov-25 04:33N 39°34' E 002°38'0 0.0
2016-Nov-25 03:33N 39°34' E 002°38'0 0.0
2016-Nov-25 02:33N 39°34' E 002°38'0 0.0
2016-Nov-25 01:33N 39°34' E 002°38'0 0.0
2016-Nov-25 00:33N 39°34' E 002°38'0 0.0
2016-Nov-24 23:33N 39°34' E 002°38'0 0.0
2016-Nov-24 22:33N 39°34' E 002°38'0 0.0
2016-Nov-24 21:33N 39°34' E 002°38'0 0.0
2016-Nov-24 20:33N 39°34' E 002°38'0 0.0
2016-Nov-24 19:33N 39°34' E 002°38'0 0.0
2016-Nov-24 18:33N 39°34' E 002°38'0 0.0
2016-Nov-24 17:33N 39°34' E 002°38'0 0.0
2016-Nov-24 16:33N 39°34' E 002°38'0 0.0
2016-Nov-24 15:33N 39°34' E 002°38'0 0.0
2016-Nov-24 14:33N 39°34' E 002°38'0 0.0
2016-Nov-24 13:33N 39°34' E 002°38'0 0.0
2016-Nov-24 12:33N 39°34' E 002°38'0 0.0
2016-Nov-24 11:33N 39°34' E 002°38'0 0.0
2016-Nov-24 10:33N 39°34' E 002°38'0 0.0
2016-Nov-24 09:33N 39°34' E 002°38'0 0.0
2016-Nov-24 08:33N 39°34' E 002°38'0 0.0
2016-Nov-24 07:33N 39°34' E 002°38'0 0.0
2016-Nov-24 06:33N 39°34' E 002°38'0 0.0
2016-Nov-24 05:32N 39°34' E 002°38'0 0.0
2016-Nov-24 04:34N 39°34' E 002°38'0 0.0
2016-Nov-24 03:33N 39°34' E 002°38'0 0.0
2016-Nov-24 02:33N 39°34' E 002°38'0 0.0
2016-Nov-24 01:33N 39°34' E 002°38'0 0.0
2016-Nov-24 00:33N 39°34' E 002°38'0 0.0
2016-Nov-23 23:33N 39°34' E 002°38'0 0.0
2016-Nov-23 22:33N 39°34' E 002°38'0 0.0
2016-Nov-23 21:34N 39°34' E 002°38'0 0.0
2016-Nov-23 20:33N 39°34' E 002°38'0 0.0
2016-Nov-23 19:33N 39°34' E 002°38'  

Dump ship's entire track history